createdAt,value
2018-11-14T00:01:01.037Z,59.48
2018-11-14T00:03:28.429Z,60.30
2018-11-14T00:05:55.825Z,59.59
2018-11-14T00:08:23.229Z,60.16
2018-11-14T00:10:50.965Z,60.30
2018-11-14T00:13:18.529Z,61.04
2018-11-14T00:15:45.894Z,60.51
2018-11-14T00:18:13.323Z,59.87
2018-11-14T00:20:40.795Z,60.51
2018-11-14T00:23:08.234Z,60.51
2018-11-14T00:25:35.845Z,58.93
2018-11-14T00:28:03.757Z,61.41
2018-11-14T00:30:30.875Z,59.88
2018-11-14T00:32:58.384Z,59.39
2018-11-14T00:35:25.811Z,60.46
2018-11-14T00:37:53.185Z,58.46
2018-11-14T00:40:21.135Z,58.52
2018-11-14T00:42:48.859Z,60.05
2018-11-14T00:45:17.593Z,59.63
2018-11-14T00:47:46.088Z,60.19
2018-11-14T00:50:14.354Z,60.03
2018-11-14T00:52:42.438Z,59.55
2018-11-14T00:55:12.978Z,61.73
2018-11-14T00:57:40.958Z,60.49
2018-11-14T01:00:10.875Z,61.92
2018-11-14T01:02:38.540Z,60.10
2018-11-14T01:05:06.859Z,60.77
2018-11-14T01:07:34.384Z,61.00
2018-11-14T01:10:01.835Z,59.55
2018-11-14T01:12:29.400Z,59.74
2018-11-14T01:14:56.859Z,60.40
2018-11-14T01:17:24.394Z,59.97
2018-11-14T01:19:51.810Z,61.56
2018-11-14T01:22:19.357Z,60.17
2018-11-14T01:24:46.819Z,60.49
2018-11-14T01:27:14.171Z,59.88
2018-11-14T01:29:41.627Z,59.97
2018-11-14T01:32:09.321Z,60.38
2018-11-14T01:34:36.642Z,60.29
2018-11-14T01:37:04.643Z,60.23
2018-11-14T01:39:32.137Z,60.78
2018-11-14T01:41:59.689Z,59.84
2018-11-14T01:44:26.983Z,60.82
2018-11-14T01:46:54.444Z,59.78
2018-11-14T01:49:21.880Z,59.85
2018-11-14T01:51:49.325Z,59.68
2018-11-14T01:54:16.745Z,60.20
2018-11-14T01:56:44.145Z,61.46
2018-11-14T01:59:11.566Z,60.62
2018-11-14T02:01:39.553Z,60.04
2018-11-14T02:04:06.927Z,60.87
2018-11-14T02:06:34.405Z,59.41
2018-11-14T02:09:01.916Z,58.96
2018-11-14T02:11:29.542Z,58.76
2018-11-14T02:13:57.553Z,57.94
2018-11-14T02:16:25.188Z,58.94
2018-11-14T02:18:52.656Z,59.64
2018-11-14T02:21:20.068Z,59.01
2018-11-14T02:23:47.589Z,59.33
2018-11-14T02:26:14.921Z,59.25
2018-11-14T02:28:42.598Z,59.44
2018-11-14T02:31:10.077Z,59.57
2018-11-14T02:33:37.544Z,59.85
2018-11-14T02:36:05.197Z,59.84
2018-11-14T02:38:32.741Z,60.29
2018-11-14T02:41:00.166Z,60.35
2018-11-14T02:43:27.673Z,60.34
2018-11-14T02:45:55.042Z,59.82
2018-11-14T02:48:22.339Z,60.06
2018-11-14T02:50:59.876Z,59.83
2018-11-14T02:53:27.192Z,60.92
2018-11-14T02:56:06.994Z,59.48
2018-11-14T02:58:34.425Z,59.87
2018-11-14T03:01:01.773Z,60.54
2018-11-14T03:03:29.173Z,59.15
2018-11-14T03:05:56.481Z,60.06
2018-11-14T03:08:23.964Z,59.89
2018-11-14T03:10:51.560Z,60.44
2018-11-14T03:13:19.003Z,60.47
2018-11-14T03:15:46.375Z,60.05
2018-11-14T03:18:13.800Z,60.45
2018-11-14T03:20:41.177Z,60.44
2018-11-14T03:23:08.508Z,60.74
2018-11-14T03:25:35.892Z,60.35
2018-11-14T03:28:03.370Z,60.76
2018-11-14T03:30:30.732Z,59.83
2018-11-14T03:32:58.079Z,61.13
2018-11-14T03:35:30.056Z,60.90
2018-11-14T03:37:57.444Z,60.42
2018-11-14T03:40:24.827Z,61.31
2018-11-14T03:42:52.199Z,61.08
2018-11-14T03:45:19.518Z,61.97
2018-11-14T03:47:47.404Z,62.60
2018-11-14T03:50:14.727Z,62.22
2018-11-14T03:52:42.137Z,61.58
2018-11-14T03:55:09.660Z,61.88
2018-11-14T03:57:37.129Z,61.25
2018-11-14T04:00:07.716Z,61.16
2018-11-14T04:02:35.092Z,60.84
2018-11-14T04:05:02.452Z,61.00
2018-11-14T04:07:29.850Z,61.04
2018-11-14T04:09:57.245Z,60.33
2018-11-14T04:12:24.630Z,59.75
2018-11-14T04:14:51.996Z,60.02
2018-11-14T04:17:19.346Z,58.97
2018-11-14T04:19:46.804Z,58.69
2018-11-14T04:22:14.189Z,60.02
2018-11-14T04:24:41.571Z,59.71
2018-11-14T04:27:09.019Z,60.32
2018-11-14T04:29:36.423Z,60.71
2018-11-14T04:32:04.197Z,60.73
2018-11-14T04:34:31.715Z,61.88
2018-11-14T04:36:59.131Z,61.01
2018-11-14T04:39:26.653Z,61.38
2018-11-14T04:41:54.181Z,61.18
2018-11-14T04:44:21.628Z,61.02
2018-11-14T04:46:49.074Z,61.03
2018-11-14T04:49:16.493Z,60.34
2018-11-14T04:51:44.097Z,59.89
2018-11-14T04:54:12.409Z,60.75
2018-11-14T04:56:39.936Z,60.90
2018-11-14T04:59:07.375Z,61.24
2018-11-14T05:01:34.851Z,60.33
2018-11-14T05:04:02.207Z,61.36
2018-11-14T05:06:29.753Z,60.57
2018-11-14T05:08:57.192Z,59.60
2018-11-14T05:11:24.634Z,60.25
2018-11-14T05:13:52.137Z,61.88
2018-11-14T05:16:19.572Z,61.01
2018-11-14T05:18:47.202Z,60.24
2018-11-14T05:21:14.646Z,59.54
2018-11-14T05:23:42.238Z,59.60
2018-11-14T05:26:09.697Z,58.48
2018-11-14T05:28:37.130Z,58.77
2018-11-14T05:31:04.845Z,59.66
2018-11-14T05:33:32.793Z,62.08
2018-11-14T05:36:00.227Z,61.53
2018-11-14T05:38:27.735Z,60.95
2018-11-14T05:40:55.166Z,60.57
2018-11-14T05:43:22.578Z,60.67
2018-11-14T05:45:49.910Z,60.44
2018-11-14T05:48:23.480Z,62.09
2018-11-14T05:50:50.908Z,61.27
2018-11-14T05:53:18.434Z,61.58
2018-11-14T05:55:45.759Z,61.42
2018-11-14T05:58:13.124Z,60.13
2018-11-14T06:00:40.519Z,59.45
2018-11-14T06:03:07.977Z,60.41
2018-11-14T06:05:35.307Z,60.98
2018-11-14T06:08:02.729Z,61.53
2018-11-14T06:10:30.139Z,61.15
2018-11-14T06:12:57.550Z,62.18
2018-11-14T06:15:25.011Z,60.02
2018-11-14T06:17:53.749Z,61.50
2018-11-14T06:20:21.925Z,59.10
2018-11-14T06:22:50.356Z,59.63
2018-11-14T06:25:21.564Z,59.77
2018-11-14T06:27:49.866Z,60.07
2018-11-14T06:30:17.304Z,60.72
2018-11-14T06:32:44.664Z,60.02
2018-11-14T06:35:12.539Z,59.97
2018-11-14T06:37:39.975Z,60.41
2018-11-14T06:40:09.008Z,60.36
2018-11-14T06:42:36.466Z,60.09
2018-11-14T06:45:04.380Z,60.71
2018-11-14T06:47:31.690Z,60.06
2018-11-14T06:49:59.182Z,59.73
2018-11-14T06:52:26.625Z,60.06
2018-11-14T06:54:54.210Z,60.30
2018-11-14T06:57:21.639Z,59.88
2018-11-14T06:59:49.527Z,59.44
2018-11-14T07:02:17.876Z,60.73
2018-11-14T07:04:45.345Z,61.17
2018-11-14T07:07:12.764Z,60.85
2018-11-14T07:09:40.159Z,61.48
2018-11-14T07:12:07.537Z,60.29
2018-11-14T07:14:34.910Z,61.52
2018-11-14T07:17:02.599Z,61.37
2018-11-14T07:19:30.044Z,60.76
2018-11-14T07:21:57.464Z,60.80
2018-11-14T07:24:24.847Z,60.91
2018-11-14T07:26:53.265Z,61.52
2018-11-14T07:29:20.587Z,59.71
2018-11-14T07:31:47.987Z,60.04
2018-11-14T07:34:15.344Z,59.83
2018-11-14T07:36:42.789Z,59.94
2018-11-14T07:39:10.157Z,59.72
2018-11-14T07:41:39.805Z,60.07
2018-11-14T07:44:07.426Z,61.08
2018-11-14T07:46:35.960Z,60.96
2018-11-14T07:49:03.797Z,61.08
2018-11-14T07:51:31.748Z,61.21
2018-11-14T07:53:59.368Z,60.17
2018-11-14T07:56:27.362Z,61.78
2018-11-14T07:58:54.724Z,61.79
2018-11-14T08:01:22.558Z,61.65
2018-11-14T08:03:49.937Z,62.71
2018-11-14T08:06:17.513Z,61.46
2018-11-14T08:08:45.434Z,61.22
2018-11-14T08:11:12.803Z,61.53
2018-11-14T08:13:42.853Z,60.58
2018-11-14T08:16:10.268Z,60.17
2018-11-14T08:18:38.387Z,60.94
2018-11-14T08:21:06.438Z,60.76
2018-11-14T08:23:34.213Z,59.96
2018-11-14T08:26:01.660Z,60.31
2018-11-14T08:28:29.023Z,60.27
2018-11-14T08:30:56.383Z,59.91
2018-11-14T08:33:23.849Z,59.70
2018-11-14T08:35:51.224Z,59.19
2018-11-14T08:38:18.701Z,58.41
2018-11-14T08:40:46.131Z,58.85
2018-11-14T08:43:13.529Z,59.36
2018-11-14T08:45:40.905Z,58.52
2018-11-14T08:48:08.976Z,58.61
2018-11-14T08:50:36.331Z,58.48
2018-11-14T08:53:03.991Z,58.58
2018-11-14T08:55:31.439Z,57.95
2018-11-14T08:57:59.056Z,58.96
2018-11-14T09:00:27.506Z,59.37
2018-11-14T09:02:55.045Z,59.17
2018-11-14T09:05:22.416Z,59.53
2018-11-14T09:07:50.241Z,59.33
2018-11-14T09:10:20.005Z,59.61
2018-11-14T09:12:47.919Z,58.63
2018-11-14T09:15:18.586Z,59.29
2018-11-14T09:17:46.200Z,58.96
2018-11-14T09:20:15.107Z,58.28
2018-11-14T09:22:42.936Z,59.10
2018-11-14T09:25:12.708Z,58.89
2018-11-14T09:27:40.506Z,59.16
2018-11-14T09:30:12.507Z,58.74
2018-11-14T09:32:40.038Z,58.66
2018-11-14T09:35:08.876Z,59.04
2018-11-14T09:37:36.536Z,58.97
2018-11-14T09:40:05.350Z,59.29
2018-11-14T09:42:32.782Z,59.47
2018-11-14T09:45:00.255Z,58.85
2018-11-14T09:47:27.680Z,59.06
2018-11-14T09:49:55.064Z,58.21
2018-11-14T09:52:22.751Z,59.09
2018-11-14T09:54:50.214Z,58.89
2018-11-14T09:57:17.632Z,58.16
2018-11-14T09:59:45.069Z,59.29
2018-11-14T10:02:12.551Z,58.72
2018-11-14T10:04:39.922Z,57.70
2018-11-14T10:07:07.918Z,58.75
2018-11-14T10:09:35.297Z,57.21
2018-11-14T10:12:02.775Z,57.35
2018-11-14T10:14:30.157Z,56.93
2018-11-14T10:16:57.515Z,57.46
2018-11-14T10:19:24.997Z,56.98
2018-11-14T10:21:52.568Z,57.37
2018-11-14T10:24:20.003Z,57.61
2018-11-14T10:26:47.429Z,56.35
2018-11-14T10:29:14.989Z,56.93
2018-11-14T10:31:42.468Z,56.66
2018-11-14T10:34:09.873Z,57.07
2018-11-14T10:36:37.192Z,57.44
2018-11-14T10:39:08.197Z,57.35
2018-11-14T10:41:35.581Z,57.03
2018-11-14T10:44:03.104Z,56.09
2018-11-14T10:46:30.568Z,55.99
2018-11-14T10:48:57.945Z,56.20
2018-11-14T10:51:26.427Z,56.47
2018-11-14T10:53:53.811Z,55.78
2018-11-14T10:58:55.393Z,54.83
2018-11-14T11:01:28.446Z,55.16
2018-11-14T11:04:01.572Z,55.88
2018-11-14T11:06:35.455Z,55.58
2018-11-14T11:09:14.012Z,54.58
2018-11-14T11:11:47.771Z,54.86
2018-11-14T11:14:21.160Z,54.78
2018-11-14T11:16:54.173Z,55.23
2018-11-14T11:19:24.023Z,55.61
2018-11-14T11:21:51.486Z,55.16
2018-11-14T11:24:20.272Z,55.11
2018-11-14T11:26:47.618Z,54.09
2018-11-14T11:29:14.976Z,52.78
2018-11-14T11:31:42.455Z,52.85
2018-11-14T11:34:10.532Z,52.83
2018-11-14T11:36:38.270Z,53.11
2018-11-14T11:39:07.996Z,53.08
2018-11-14T11:41:35.662Z,53.54
2018-11-14T11:44:02.992Z,52.65
2018-11-14T11:46:30.378Z,51.89
2018-11-14T11:48:57.764Z,52.19
2018-11-14T11:51:25.264Z,51.67
2018-11-14T11:53:52.752Z,50.65
2018-11-14T11:56:20.105Z,51.03
2018-11-14T11:58:47.514Z,51.00
2018-11-14T12:01:14.879Z,52.02
2018-11-14T12:03:42.303Z,51.15
2018-11-14T12:06:10.172Z,52.22
2018-11-14T12:08:37.411Z,51.81
2018-11-14T12:11:06.243Z,51.66
2018-11-14T12:13:33.779Z,51.05
2018-11-14T12:16:02.015Z,51.04
2018-11-14T12:18:29.227Z,50.37
2018-11-14T12:20:56.954Z,51.09
2018-11-14T12:23:27.716Z,50.08
2018-11-14T12:25:55.374Z,50.66
2018-11-14T12:28:22.801Z,50.27
2018-11-14T12:30:50.337Z,49.94
2018-11-14T12:33:17.702Z,50.58
2018-11-14T12:35:45.184Z,50.77
2018-11-14T12:38:13.037Z,49.64
2018-11-14T12:40:40.373Z,49.11
2018-11-14T12:43:08.346Z,49.71
2018-11-14T12:45:35.779Z,49.48
2018-11-14T12:48:03.178Z,49.40
2018-11-14T12:50:30.584Z,48.35
2018-11-14T12:52:58.172Z,48.82
2018-11-14T12:55:25.663Z,48.89
2018-11-14T12:57:53.093Z,48.12
2018-11-14T13:00:21.132Z,49.21
2018-11-14T13:02:48.458Z,49.50
2018-11-14T13:05:16.071Z,48.10
2018-11-14T13:07:43.686Z,48.50
2018-11-14T13:10:15.509Z,48.71
2018-11-14T13:12:43.781Z,48.15
2018-11-14T13:15:12.332Z,48.10
2018-11-14T13:17:40.252Z,48.26
2018-11-14T13:20:09.295Z,48.11
2018-11-14T13:22:36.655Z,47.85
2018-11-14T13:25:05.459Z,48.57
2018-11-14T13:27:32.913Z,48.49
2018-11-14T13:30:00.285Z,48.28
2018-11-14T13:32:27.977Z,48.49
2018-11-14T13:34:55.448Z,48.51
2018-11-14T13:37:22.843Z,48.13
2018-11-14T13:39:50.265Z,47.95
2018-11-14T13:42:17.674Z,48.26
2018-11-14T13:44:45.016Z,48.51
2018-11-14T13:47:12.502Z,49.20
2018-11-14T13:49:40.081Z,47.65
2018-11-14T13:52:07.403Z,48.76
2018-11-14T13:54:34.735Z,49.32
2018-11-14T13:57:03.136Z,49.00
2018-11-14T13:59:30.591Z,48.63
2018-11-14T14:01:58.012Z,49.05
2018-11-14T14:04:25.411Z,48.11
2018-11-14T14:06:52.796Z,48.61
2018-11-14T14:09:20.406Z,48.87
2018-11-14T14:11:47.760Z,48.72
2018-11-14T14:14:17.062Z,48.10
2018-11-14T14:16:44.970Z,48.94
2018-11-14T14:19:12.820Z,48.38
2018-11-14T14:21:40.210Z,48.79
2018-11-14T14:24:07.838Z,48.54
2018-11-14T14:26:35.953Z,49.72
2018-11-14T14:29:03.784Z,48.99
2018-11-14T14:31:31.299Z,49.09
2018-11-14T14:33:58.658Z,50.02
2018-11-14T14:36:26.117Z,49.97
2018-11-14T14:38:53.534Z,49.15
2018-11-14T14:41:20.873Z,48.50
2018-11-14T14:43:48.327Z,49.19
2018-11-14T14:46:15.698Z,49.33
2018-11-14T14:48:43.108Z,49.38
2018-11-14T14:51:10.504Z,49.72
2018-11-14T14:53:45.072Z,49.18
2018-11-14T14:56:12.529Z,49.98
2018-11-14T14:58:39.953Z,50.17
2018-11-14T15:01:07.411Z,49.19
2018-11-14T15:03:34.899Z,50.05
2018-11-14T15:06:03.214Z,51.34
2018-11-14T15:08:30.748Z,51.01
2018-11-14T15:10:58.187Z,50.35
2018-11-14T15:13:25.576Z,51.36
2018-11-14T15:15:53.054Z,52.08
2018-11-14T15:18:20.461Z,53.12
2018-11-14T15:20:47.808Z,53.01
2018-11-14T15:23:15.350Z,52.68
2018-11-14T15:25:42.764Z,52.25
2018-11-14T15:28:10.184Z,52.07
2018-11-14T15:30:37.670Z,52.63
2018-11-14T15:33:05.000Z,52.09
2018-11-14T15:35:32.432Z,52.86
2018-11-14T15:37:59.807Z,53.09
2018-11-14T15:40:28.567Z,53.41
2018-11-14T15:42:57.015Z,53.62
2018-11-14T15:45:26.752Z,53.81
2018-11-14T15:47:54.274Z,53.88
2018-11-14T15:50:24.102Z,54.05
2018-11-14T15:52:52.552Z,54.57
2018-11-14T15:55:20.474Z,54.35
2018-11-14T15:57:48.472Z,54.71
2018-11-14T16:00:22.971Z,55.20
2018-11-14T16:02:50.469Z,54.00
2018-11-14T16:05:19.338Z,53.59
2018-11-14T16:07:48.050Z,53.70
2018-11-14T16:10:16.924Z,53.81
2018-11-14T16:12:44.902Z,55.19
2018-11-14T16:15:13.782Z,53.30
2018-11-14T16:17:41.671Z,53.63
2018-11-14T16:20:14.337Z,54.14
2018-11-14T16:22:41.681Z,54.65
2018-11-14T16:25:11.466Z,53.96
2018-11-14T16:27:39.285Z,54.02
2018-11-14T16:30:09.831Z,54.39
2018-11-14T16:32:37.167Z,55.00
2018-11-14T16:35:04.735Z,54.53
2018-11-14T16:37:32.159Z,55.47
2018-11-14T16:40:00.330Z,55.12
2018-11-14T16:42:27.858Z,55.16
2018-11-14T16:44:55.328Z,54.22
2018-11-14T16:47:23.239Z,54.81
2018-11-14T16:49:50.595Z,54.60
2018-11-14T16:52:17.981Z,55.28
2018-11-14T16:54:45.318Z,55.48
2018-11-14T16:57:12.833Z,54.28
2018-11-14T16:59:40.301Z,55.42
2018-11-14T17:02:07.780Z,55.81
2018-11-14T17:04:35.141Z,55.03
2018-11-14T17:07:02.480Z,55.48
2018-11-14T17:09:29.972Z,55.99
2018-11-14T17:11:57.332Z,56.05
2018-11-14T17:14:24.726Z,56.47
2018-11-14T17:16:52.186Z,55.43
2018-11-14T17:19:19.798Z,55.43
2018-11-14T17:21:47.236Z,56.13
2018-11-14T17:24:14.714Z,55.63
2018-11-14T17:26:43.092Z,55.85
2018-11-14T17:29:10.502Z,56.43
2018-11-14T17:31:38.016Z,56.72
2018-11-14T17:34:05.462Z,55.93
2018-11-14T17:36:32.899Z,56.89
2018-11-14T17:39:00.372Z,56.22
2018-11-14T17:41:27.762Z,55.93
2018-11-14T17:43:55.138Z,55.56
2018-11-14T17:46:22.772Z,55.80
2018-11-14T17:48:50.664Z,56.31
2018-11-14T17:51:18.106Z,55.69
2018-11-14T17:53:45.432Z,56.01
2018-11-14T17:56:12.809Z,55.90
2018-11-14T17:58:40.164Z,56.00
2018-11-14T18:01:07.556Z,56.24
2018-11-14T18:03:35.017Z,55.98
2018-11-14T18:06:02.411Z,55.89
2018-11-14T18:08:30.349Z,56.06
2018-11-14T18:10:57.737Z,56.38
2018-11-14T18:13:25.259Z,55.69
2018-11-14T18:15:52.693Z,56.48
2018-11-14T18:18:20.301Z,56.44
2018-11-14T18:20:47.672Z,55.99
2018-11-14T18:23:15.361Z,56.12
2018-11-14T18:25:42.821Z,56.18
2018-11-14T18:28:10.184Z,56.27
2018-11-14T18:30:37.759Z,56.28
2018-11-14T18:33:05.262Z,55.57
2018-11-14T18:35:32.692Z,55.88
2018-11-14T18:38:00.882Z,56.30
2018-11-14T18:40:29.713Z,56.13
2018-11-14T18:42:57.137Z,55.62
2018-11-14T18:45:26.702Z,55.96
2018-11-14T18:47:55.006Z,56.57
2018-11-14T18:50:23.053Z,56.67
2018-11-14T18:52:50.850Z,56.59
2018-11-14T18:55:19.600Z,56.82
2018-11-14T18:57:47.985Z,56.22
2018-11-14T19:00:18.542Z,56.60
2018-11-14T19:02:46.145Z,56.58
2018-11-14T19:05:14.292Z,56.69
2018-11-14T19:07:42.093Z,56.05
2018-11-14T19:10:11.319Z,56.41
2018-11-14T19:12:39.385Z,56.88
2018-11-14T19:15:12.771Z,56.84
2018-11-14T19:17:40.524Z,55.74
2018-11-14T19:20:10.299Z,56.95
2018-11-14T19:22:37.807Z,56.58
2018-11-14T19:25:06.639Z,56.28
2018-11-14T19:27:34.081Z,56.77
2018-11-14T19:30:01.437Z,56.82
2018-11-14T19:32:28.803Z,56.13
2018-11-14T19:34:56.190Z,56.54
2018-11-14T19:37:23.534Z,57.02
2018-11-14T19:39:51.053Z,57.00
2018-11-14T19:42:18.592Z,57.47
2018-11-14T19:44:45.987Z,56.89
2018-11-14T19:47:13.356Z,56.75
2018-11-14T19:49:40.816Z,56.87
2018-11-14T19:52:08.808Z,56.88
2018-11-14T19:54:36.273Z,56.44
2018-11-14T19:57:03.780Z,56.76
2018-11-14T19:59:31.170Z,56.60
2018-11-14T20:01:58.631Z,57.17
2018-11-14T20:04:26.022Z,57.21
2018-11-14T20:06:53.446Z,56.98
2018-11-14T20:09:20.924Z,57.37
2018-11-14T20:11:48.340Z,56.96
2018-11-14T20:14:15.716Z,56.75
2018-11-14T20:16:43.062Z,57.10
2018-11-14T20:19:10.468Z,56.63
2018-11-14T20:21:38.879Z,57.00
2018-11-14T20:24:06.283Z,56.74
2018-11-14T20:26:33.741Z,57.34
2018-11-14T20:29:01.188Z,55.93
2018-11-14T20:31:28.749Z,56.83
2018-11-14T20:33:56.093Z,56.61
2018-11-14T20:36:23.541Z,56.30
2018-11-14T20:38:50.882Z,57.12
2018-11-14T20:41:18.324Z,56.59
2018-11-14T20:43:45.648Z,56.79
2018-11-14T20:46:13.077Z,56.81
2018-11-14T20:48:40.480Z,55.91
2018-11-14T20:51:07.991Z,55.63
2018-11-14T20:53:35.349Z,56.00
2018-11-14T20:56:02.823Z,56.10
2018-11-14T20:58:30.305Z,56.03
2018-11-14T21:00:57.782Z,55.35
2018-11-14T21:03:25.239Z,56.07
2018-11-14T21:05:52.635Z,56.17
2018-11-14T21:08:20.019Z,55.76
2018-11-14T21:10:47.480Z,55.89
2018-11-14T21:13:14.931Z,56.05
2018-11-14T21:15:42.417Z,55.87
2018-11-14T21:18:09.862Z,55.49
2018-11-14T21:20:37.331Z,56.28
2018-11-14T21:23:04.958Z,56.54
2018-11-14T21:25:32.328Z,55.88
2018-11-14T21:27:59.781Z,55.85
2018-11-14T21:30:28.387Z,56.93
2018-11-14T21:32:55.786Z,56.95
2018-11-14T21:35:29.806Z,57.10
2018-11-14T21:38:00.539Z,58.30
2018-11-14T21:40:28.369Z,57.89
2018-11-14T21:42:56.009Z,56.71
2018-11-14T21:45:24.732Z,58.20
2018-11-14T21:47:58.640Z,58.17
2018-11-14T21:50:27.155Z,56.75
2018-11-14T21:52:55.129Z,57.39
2018-11-14T21:55:23.250Z,57.32
2018-11-14T21:57:50.596Z,58.61
2018-11-14T22:00:20.367Z,58.35
2018-11-14T22:02:49.245Z,57.79
2018-11-14T22:05:16.644Z,57.40
2018-11-14T22:07:44.101Z,57.06
2018-11-14T22:10:13.817Z,56.95
2018-11-14T22:12:41.871Z,57.06
2018-11-14T22:15:11.499Z,57.02
2018-11-14T22:17:39.485Z,56.67
2018-11-14T22:20:09.139Z,56.48
2018-11-14T22:22:36.530Z,56.93
2018-11-14T22:25:03.895Z,57.05
2018-11-14T22:27:31.383Z,57.57
2018-11-14T22:29:58.938Z,57.02
2018-11-14T22:32:27.018Z,57.30
2018-11-14T22:34:54.578Z,57.28
2018-11-14T22:37:22.326Z,56.17
2018-11-14T22:39:50.006Z,56.81
2018-11-14T22:42:17.407Z,56.46
2018-11-14T22:44:44.775Z,57.06
2018-11-14T22:47:12.193Z,57.25
2018-11-14T22:49:39.625Z,57.71
2018-11-14T22:52:07.096Z,56.40
2018-11-14T22:54:35.038Z,57.03
2018-11-14T22:57:02.464Z,57.53
2018-11-14T22:59:29.884Z,59.07
2018-11-14T23:01:57.386Z,58.06
2018-11-14T23:04:24.830Z,57.18
2018-11-14T23:06:52.406Z,57.71
2018-11-14T23:09:19.766Z,57.56
2018-11-14T23:11:47.294Z,58.03
2018-11-14T23:14:14.744Z,57.98
2018-11-14T23:16:42.221Z,57.95
2018-11-14T23:19:09.681Z,56.82
2018-11-14T23:21:37.013Z,57.25
2018-11-14T23:24:04.888Z,57.03
2018-11-14T23:26:32.272Z,57.53
2018-11-14T23:28:59.648Z,56.96
2018-11-14T23:31:27.038Z,57.17
2018-11-14T23:33:54.402Z,57.01
2018-11-14T23:36:21.784Z,56.20
2018-11-14T23:38:49.120Z,56.68
2018-11-14T23:41:16.587Z,57.01
2018-11-14T23:43:44.052Z,56.95
2018-11-14T23:46:11.414Z,56.90
2018-11-14T23:48:38.818Z,57.01
2018-11-14T23:51:06.294Z,56.60
2018-11-14T23:53:33.726Z,56.38
2018-11-14T23:56:01.249Z,56.83
2018-11-14T23:58:28.632Z,56.83
